Terminal Aerodrome Forecast
Issued by NWS

Home | Current Version | Previous Version | Text Only | Print | Product List | Glossary On
Versions: 1 2 3 4 5 6 7 8 9 10 11 12 13 14 15 16 17 18 19 20
000
FTUS42 KGSP 230526
TAFHKY
TAF
KHKY 230526Z 2306/2406 02003KT 4SM -SHRA BR OVC015
     FM230900 03003KT 3SM -SHRA BR OVC010
     FM240100 05004KT 6SM BR VCSH OVC008
     FM240300 05004KT 3SM BR VCSH OVC003=

USA.gov is the U.S. government's official web portal to all federal, state and local government web resources and services.